Terminal Aerodrome Forecast
Issued by NWS Houston/Galveston, TX

Home | Current Version | Previous Version | Text Only | Print | Product List | Glossary On
Versions: 1 2 3 4 5 6 7 8 9 10 11 12 13 14 15 16 17 18 19 20 21 22 23 24 25 26 27 28 29 30 31 32 33 34 35 36
373
FTUS44 KHGX 132324
TAFCLL
TAF
KCLL 132324Z 1400/1424 13011KT P6SM BKN045
     FM140200 14010KT P6SM SCT015 OVC025
     FM140600 16006KT 6SM BR SCT005 OVC015
     FM141600 17010KT P6SM BKN025
     FM141900 19014G24KT P6SM BKN040=

USA.gov is the U.S. government's official web portal to all federal, state and local government web resources and services.